createdAt,value
2022-09-07T00:00:44.955Z,17.17
2022-09-07T00:03:11.559Z,17.20
2022-09-07T00:05:43.153Z,17.17
2022-09-07T00:08:10.221Z,17.22
2022-09-07T00:10:37.184Z,17.20
2022-09-07T00:13:04.270Z,17.19
2022-09-07T00:15:31.024Z,17.29
2022-09-07T00:17:57.545Z,17.33
2022-09-07T00:20:24.083Z,17.34
2022-09-07T00:22:50.550Z,17.32
2022-09-07T00:25:17.061Z,17.19
2022-09-07T00:27:43.507Z,17.36
2022-09-07T00:30:10.473Z,17.35
2022-09-07T00:32:37.021Z,17.32
2022-09-07T00:35:03.627Z,17.13
2022-09-07T00:37:30.077Z,17.25
2022-09-07T00:39:56.640Z,17.31
2022-09-07T00:42:23.506Z,17.39
2022-09-07T00:45:07.099Z,17.35
2022-09-07T00:47:55.399Z,17.42
2022-09-07T00:50:34.050Z,17.43
2022-09-07T00:53:24.534Z,17.45
2022-09-07T00:55:53.639Z,17.40
2022-09-07T00:58:22.517Z,17.40
2022-09-07T01:00:50.070Z,17.40
2022-09-07T01:03:27.245Z,17.43
2022-09-07T01:06:17.600Z,17.29
2022-09-07T01:08:44.098Z,17.54
2022-09-07T01:11:12.141Z,17.42
2022-09-07T01:13:44.151Z,17.38
2022-09-07T01:16:36.551Z,17.35
2022-09-07T01:19:18.252Z,17.45
2022-09-07T01:22:06.131Z,17.43
2022-09-07T01:24:35.437Z,17.43
2022-09-07T01:27:56.035Z,17.47
2022-09-07T01:30:24.091Z,17.42
2022-09-07T01:33:02.887Z,17.44
2022-09-07T01:35:54.160Z,17.34
2022-09-07T01:38:28.355Z,17.33
2022-09-07T01:41:18.625Z,17.50
2022-09-07T01:43:48.612Z,17.58
2022-09-07T01:46:33.681Z,17.53
2022-09-07T01:49:12.121Z,17.51
2022-09-07T01:51:43.899Z,17.49
2022-09-07T01:54:15.931Z,17.42
2022-09-07T01:56:47.470Z,17.51
2022-09-07T01:59:31.914Z,17.52
2022-09-07T02:02:07.622Z,17.54
2022-09-07T02:04:46.944Z,17.57
2022-09-07T02:07:21.599Z,17.57
2022-09-07T02:09:52.668Z,17.58
2022-09-07T02:12:27.809Z,17.51
2022-09-07T02:15:01.889Z,17.58
2022-09-07T02:17:36.137Z,17.62
2022-09-07T02:20:19.357Z,17.51
2022-09-07T02:22:51.794Z,17.66
2022-09-07T02:25:24.039Z,17.52
2022-09-07T02:27:57.265Z,17.57
2022-09-07T02:30:23.860Z,17.44
2022-09-07T02:32:50.911Z,17.68
2022-09-07T02:35:17.808Z,17.69
2022-09-07T02:37:45.510Z,17.70
2022-09-07T02:40:12.970Z,17.53
2022-09-07T02:42:39.739Z,17.60
2022-09-07T02:45:09.711Z,17.64
2022-09-07T02:48:09.603Z,17.75
2022-09-07T02:51:01.127Z,17.72
2022-09-07T02:53:33.667Z,17.68
2022-09-07T02:56:18.995Z,17.64
2022-09-07T02:58:54.535Z,17.64
2022-09-07T03:01:20.993Z,17.62
2022-09-07T03:04:03.893Z,17.62
2022-09-07T03:06:39.113Z,17.62
2022-09-07T03:09:11.365Z,17.47
2022-09-07T03:11:38.334Z,17.53
2022-09-07T03:14:16.564Z,17.61
2022-09-07T03:16:43.715Z,17.49
2022-09-07T03:19:10.236Z,17.57
2022-09-07T03:21:36.645Z,17.44
2022-09-07T03:24:03.410Z,17.54
2022-09-07T03:26:29.877Z,17.38
2022-09-07T03:28:56.569Z,17.48
2022-09-07T03:31:23.069Z,17.40
2022-09-07T03:33:49.604Z,17.43
2022-09-07T03:36:16.078Z,17.27
2022-09-07T03:38:42.542Z,17.34
2022-09-07T03:41:08.991Z,17.25
2022-09-07T03:43:35.866Z,17.29
2022-09-07T03:46:05.357Z,17.23
2022-09-07T03:48:35.573Z,17.28
2022-09-07T03:51:05.481Z,17.21
2022-09-07T03:53:33.486Z,17.27
2022-09-07T03:56:02.119Z,17.11
2022-09-07T03:58:30.212Z,17.23
2022-09-07T04:00:57.522Z,17.22
2022-09-07T04:03:24.065Z,17.07
2022-09-07T04:05:50.528Z,17.17
2022-09-07T04:08:17.662Z,17.15
2022-09-07T04:10:44.115Z,17.20
2022-09-07T04:13:10.891Z,17.03
2022-09-07T04:15:37.465Z,17.21
2022-09-07T04:18:04.003Z,17.18
2022-09-07T04:20:31.051Z,17.11
2022-09-07T04:22:57.511Z,17.21
2022-09-07T04:25:23.974Z,17.07
2022-09-07T04:27:50.434Z,17.20
2022-09-07T04:30:16.871Z,17.16
2022-09-07T04:32:43.294Z,17.19
2022-09-07T04:35:10.198Z,17.23
2022-09-07T04:37:36.668Z,17.27
2022-09-07T04:40:03.487Z,17.15
2022-09-07T04:42:30.154Z,17.28
2022-09-07T04:44:57.114Z,17.31
2022-09-07T04:47:23.645Z,17.25
2022-09-07T04:49:51.239Z,17.22
2022-09-07T04:52:18.394Z,17.36
2022-09-07T04:54:48.304Z,17.15
2022-09-07T04:57:14.794Z,17.36
2022-09-07T04:59:41.266Z,17.38
2022-09-07T05:02:07.944Z,17.52
2022-09-07T05:04:37.511Z,17.56
2022-09-07T05:07:03.945Z,17.62
2022-09-07T05:09:30.485Z,17.56
2022-09-07T05:11:56.993Z,17.69
2022-09-07T05:14:25.050Z,17.72
2022-09-07T05:16:51.603Z,17.77
2022-09-07T05:19:18.077Z,17.81
2022-09-07T05:21:44.563Z,17.71
2022-09-07T05:24:11.112Z,17.82
2022-09-07T05:26:39.170Z,17.89
2022-09-07T05:31:54.712Z,18.07
2022-09-07T05:36:55.146Z,18.24
2022-09-07T05:39:21.659Z,18.31
2022-09-07T05:41:48.154Z,18.37
2022-09-07T05:47:01.036Z,18.47
2022-09-07T05:49:27.500Z,18.55
2022-09-07T05:51:53.922Z,18.55
2022-09-07T05:54:20.367Z,18.60
2022-09-07T05:56:46.909Z,18.68
2022-09-07T05:59:13.338Z,18.71
2022-09-07T06:01:39.773Z,18.52
2022-09-07T06:04:06.419Z,18.79
2022-09-07T06:06:38.811Z,18.83
2022-09-07T06:09:06.439Z,18.77
2022-09-07T06:11:32.929Z,18.86
2022-09-07T06:13:59.379Z,18.81
2022-09-07T06:16:25.982Z,18.79
2022-09-07T06:18:52.557Z,18.91
2022-09-07T06:21:21.395Z,18.92
2022-09-07T06:23:49.098Z,18.87
2022-09-07T06:26:17.026Z,18.77
2022-09-07T06:28:49.858Z,18.99
2022-09-07T06:31:22.890Z,18.98
2022-09-07T06:33:50.903Z,18.94
2022-09-07T06:36:19.712Z,18.92
2022-09-07T06:38:47.584Z,18.84
2022-09-07T06:44:04.533Z,18.74
2022-09-07T06:49:19.894Z,18.54
2022-09-07T06:51:46.598Z,18.36
2022-09-07T06:56:59.431Z,18.15
2022-09-07T06:59:25.837Z,18.01
2022-09-07T07:01:52.476Z,17.80
2022-09-07T07:04:18.898Z,17.85
2022-09-07T07:06:45.321Z,17.80
2022-09-07T07:09:13.236Z,17.52
2022-09-07T07:11:39.812Z,17.52
2022-09-07T07:14:06.308Z,17.43
2022-09-07T07:16:32.969Z,17.41
2022-09-07T07:18:59.509Z,17.15
2022-09-07T07:21:26.021Z,17.26
2022-09-07T07:23:53.670Z,17.20
2022-09-07T07:26:23.759Z,17.16
2022-09-07T07:31:26.486Z,17.03
2022-09-07T07:33:54.059Z,16.87
2022-09-07T07:36:26.084Z,17.03
2022-09-07T07:44:14.405Z,16.97
2022-09-07T07:46:40.979Z,16.93
2022-09-07T07:49:07.566Z,16.93
2022-09-07T07:52:49.850Z,16.83
2022-09-07T07:54:20.612Z,16.89
2022-09-07T07:56:47.044Z,16.91
2022-09-07T07:59:15.816Z,16.81
2022-09-07T08:01:43.833Z,16.80
2022-09-07T08:04:10.391Z,16.75
2022-09-07T08:06:37.736Z,16.78
2022-09-07T08:09:04.217Z,16.76
2022-09-07T08:11:31.176Z,16.77
2022-09-07T08:14:00.160Z,16.83
2022-09-07T08:16:26.682Z,16.77
2022-09-07T08:18:54.305Z,16.55
2022-09-07T08:21:20.710Z,16.73
2022-09-07T08:23:47.080Z,16.63
2022-09-07T08:26:13.472Z,16.73
2022-09-07T08:28:42.621Z,16.57
2022-09-07T08:31:12.203Z,16.57
2022-09-07T08:33:39.022Z,16.69
2022-09-07T08:36:17.643Z,16.64
2022-09-07T08:38:44.220Z,16.60
2022-09-07T08:41:42.114Z,16.70
2022-09-07T08:45:13.211Z,16.73
2022-09-07T08:47:44.833Z,16.68
2022-09-07T08:50:18.283Z,16.66
2022-09-07T08:52:51.144Z,16.76
2022-09-07T08:55:20.454Z,16.81
2022-09-07T08:57:53.043Z,16.84
2022-09-07T09:00:20.179Z,16.87
2022-09-07T09:03:28.552Z,16.84
2022-09-07T09:05:46.668Z,16.94
2022-09-07T09:08:34.339Z,17.03
2022-09-07T09:11:19.013Z,17.02
2022-09-07T09:14:03.352Z,17.10
2022-09-07T09:16:42.896Z,16.95
2022-09-07T09:19:34.099Z,17.17
2022-09-07T09:22:15.971Z,17.16
2022-09-07T09:24:47.713Z,17.10
2022-09-07T09:27:14.203Z,17.13
2022-09-07T09:29:40.835Z,17.05
2022-09-07T09:32:34.958Z,17.42
2022-09-07T09:35:15.057Z,17.28
2022-09-07T09:37:42.815Z,17.66
2022-09-07T09:40:22.147Z,17.72
2022-09-07T09:42:59.537Z,18.00
2022-09-07T09:45:29.042Z,18.27
2022-09-07T09:47:57.615Z,18.31
2022-09-07T09:53:29.554Z,18.83
2022-09-07T09:55:56.315Z,18.91
2022-09-07T10:01:21.776Z,19.28
2022-09-07T10:03:57.589Z,19.42
2022-09-07T10:06:26.101Z,19.46
2022-09-07T10:08:57.658Z,19.75
2022-09-07T10:12:08.500Z,20.07
2022-09-07T10:14:46.492Z,20.10
2022-09-07T10:17:28.448Z,20.38
2022-09-07T10:20:19.966Z,20.76
2022-09-07T10:22:58.432Z,21.03
2022-09-07T10:25:30.821Z,21.22
2022-09-07T10:28:15.535Z,21.50
2022-09-07T10:31:14.822Z,21.66
2022-09-07T10:37:00.021Z,22.16
2022-09-07T10:39:34.432Z,22.32
2022-09-07T10:42:03.858Z,22.44
2022-09-07T10:44:44.482Z,22.57
2022-09-07T10:47:46.798Z,22.55
2022-09-07T10:50:47.702Z,22.92
2022-09-07T10:53:41.659Z,23.08
2022-09-07T10:56:15.140Z,23.26
2022-09-07T11:01:34.167Z,23.54
2022-09-07T11:04:11.573Z,23.74
2022-09-07T11:06:41.686Z,23.97
2022-09-07T11:09:28.629Z,24.08
2022-09-07T11:12:02.231Z,24.46
2022-09-07T11:14:36.380Z,24.73
2022-09-07T11:17:13.591Z,24.98
2022-09-07T11:19:47.880Z,25.29
2022-09-07T11:22:26.466Z,25.55
2022-09-07T11:27:51.335Z,26.02
2022-09-07T11:30:20.093Z,26.12
2022-09-07T11:32:59.146Z,26.27
2022-09-07T11:35:39.461Z,26.12
2022-09-07T11:38:25.678Z,26.46
2022-09-07T11:41:30.047Z,26.66
2022-09-07T11:44:21.807Z,26.81
2022-09-07T11:46:53.421Z,26.73
2022-09-07T11:49:25.821Z,26.58
2022-09-07T11:52:24.815Z,27.01
2022-09-07T11:54:53.904Z,26.87
2022-09-07T11:57:38.682Z,27.02
2022-09-07T12:00:31.137Z,27.11
2022-09-07T12:03:23.212Z,27.21
2022-09-07T12:06:27.303Z,27.43
2022-09-07T12:09:02.471Z,27.48
2022-09-07T12:11:58.515Z,27.75
2022-09-07T12:14:47.851Z,27.86
2022-09-07T12:17:42.561Z,28.01
2022-09-07T12:20:15.344Z,28.28
2022-09-07T12:23:05.791Z,28.66
2022-09-07T12:25:34.156Z,28.72
2022-09-07T12:28:00.704Z,28.99
2022-09-07T12:30:27.132Z,29.21
2022-09-07T12:32:58.077Z,29.46
2022-09-07T12:35:37.293Z,29.66
2022-09-07T12:38:32.608Z,29.95
2022-09-07T12:41:22.609Z,30.04
2022-09-07T12:43:49.221Z,29.99
2022-09-07T12:46:35.017Z,30.20
2022-09-07T12:49:16.893Z,30.13
2022-09-07T12:52:06.813Z,30.14
2022-09-07T12:54:43.542Z,30.26
2022-09-07T12:57:29.577Z,30.36
2022-09-07T13:00:12.672Z,30.43
2022-09-07T13:03:04.260Z,30.50
2022-09-07T13:05:55.807Z,30.37
2022-09-07T13:08:40.559Z,30.59
2022-09-07T13:11:30.051Z,30.64
2022-09-07T13:14:08.807Z,31.09
2022-09-07T13:19:46.207Z,30.83
2022-09-07T13:22:30.971Z,30.90
2022-09-07T13:24:59.699Z,30.77
2022-09-07T13:27:28.920Z,30.96
2022-09-07T13:29:59.055Z,30.75
2022-09-07T13:35:21.454Z,30.95
2022-09-07T13:37:58.976Z,30.82
2022-09-07T13:40:28.626Z,30.64
2022-09-07T13:42:56.958Z,30.46
2022-09-07T13:46:01.307Z,30.62
2022-09-07T13:48:36.605Z,30.47
2022-09-07T13:51:18.777Z,30.26
2022-09-07T13:54:03.432Z,30.50
2022-09-07T13:56:29.780Z,30.64
2022-09-07T13:58:56.443Z,30.65
2022-09-07T14:01:25.726Z,30.80
2022-09-07T14:03:55.870Z,30.64
2022-09-07T14:06:22.240Z,30.92
2022-09-07T14:08:54.373Z,30.88
2022-09-07T14:11:25.684Z,30.93
2022-09-07T14:14:14.647Z,31.00
2022-09-07T14:16:43.945Z,30.77
2022-09-07T14:19:13.297Z,30.75
2022-09-07T14:21:40.146Z,30.64
2022-09-07T14:24:29.903Z,30.79
2022-09-07T14:26:56.835Z,30.62
2022-09-07T14:29:32.194Z,30.76
2022-09-07T14:32:00.970Z,30.61
2022-09-07T14:34:34.791Z,30.77
2022-09-07T14:37:06.030Z,30.58
2022-09-07T14:39:38.027Z,30.57
2022-09-07T14:42:05.293Z,30.43
2022-09-07T14:44:40.455Z,30.30
2022-09-07T14:47:23.290Z,30.05
2022-09-07T14:49:52.612Z,29.92
2022-09-07T14:52:31.456Z,29.73
2022-09-07T14:54:58.367Z,29.53
2022-09-07T14:57:31.894Z,29.32
2022-09-07T15:00:19.626Z,29.10
2022-09-07T15:02:46.312Z,28.83
2022-09-07T15:05:20.742Z,28.67
2022-09-07T15:07:53.355Z,28.65
2022-09-07T15:10:23.520Z,28.60
2022-09-07T15:12:55.271Z,28.51
2022-09-07T15:15:33.196Z,28.33
2022-09-07T15:18:07.798Z,28.32
2022-09-07T15:20:44.103Z,28.02
2022-09-07T15:23:15.805Z,28.23
2022-09-07T15:25:48.182Z,28.08
2022-09-07T15:34:11.281Z,27.95
2022-09-07T15:36:40.802Z,27.72
2022-09-07T15:39:14.221Z,27.59
2022-09-07T15:41:40.571Z,27.71
2022-09-07T15:44:07.465Z,27.35
2022-09-07T15:46:34.740Z,27.56
2022-09-07T15:49:06.913Z,27.34
2022-09-07T15:54:20.712Z,27.39
2022-09-07T15:59:34.816Z,27.27
2022-09-07T16:02:02.021Z,27.13
2022-09-07T16:04:29.205Z,26.85
2022-09-07T16:06:55.708Z,27.05
2022-09-07T16:09:22.231Z,27.05
2022-09-07T16:11:50.167Z,27.06
2022-09-07T16:14:18.796Z,26.93
2022-09-07T16:19:36.230Z,26.92
2022-09-07T16:22:03.194Z,26.84
2022-09-07T16:24:29.910Z,27.04
2022-09-07T16:26:56.873Z,26.88
2022-09-07T16:29:23.299Z,26.93
2022-09-07T16:34:36.473Z,26.96
2022-09-07T16:37:03.159Z,26.92
2022-09-07T16:39:29.552Z,26.96
2022-09-07T16:41:56.101Z,26.93
2022-09-07T16:44:22.888Z,26.59
2022-09-07T16:46:50.434Z,26.58
2022-09-07T16:49:17.713Z,26.63
2022-09-07T16:51:45.686Z,26.54
2022-09-07T16:54:13.249Z,26.39
2022-09-07T16:56:39.830Z,26.35
2022-09-07T16:59:09.595Z,26.27
2022-09-07T17:01:37.949Z,26.19
2022-09-07T17:04:10.450Z,26.06
2022-09-07T17:06:37.928Z,25.99
2022-09-07T17:09:04.876Z,25.99
2022-09-07T17:11:33.703Z,25.91
2022-09-07T17:14:01.152Z,25.85
2022-09-07T17:16:36.184Z,25.80
2022-09-07T17:21:52.695Z,25.63
2022-09-07T17:24:19.738Z,25.56
2022-09-07T17:26:46.623Z,25.51
2022-09-07T17:29:13.457Z,25.46
2022-09-07T17:34:26.594Z,25.27
2022-09-07T17:36:53.021Z,25.16
2022-09-07T17:39:19.874Z,25.03
2022-09-07T17:41:52.650Z,24.93
2022-09-07T17:44:19.405Z,24.75
2022-09-07T17:46:45.824Z,24.60
2022-09-07T17:49:14.253Z,24.51
2022-09-07T17:51:40.711Z,24.32
2022-09-07T17:54:11.613Z,24.20
2022-09-07T17:56:39.731Z,24.06
2022-09-07T18:01:54.102Z,23.65
2022-09-07T18:04:21.051Z,23.55
2022-09-07T18:06:47.502Z,23.40
2022-09-07T18:09:14.012Z,23.21
2022-09-07T18:11:49.798Z,23.08
2022-09-07T18:14:17.803Z,22.92
2022-09-07T18:16:46.204Z,22.72
2022-09-07T18:19:13.338Z,22.72
2022-09-07T18:21:42.059Z,22.62
2022-09-07T18:24:23.444Z,22.57
2022-09-07T18:26:52.546Z,22.41
2022-09-07T18:29:34.044Z,22.41
2022-09-07T18:32:04.577Z,22.34
2022-09-07T18:34:32.210Z,22.24
2022-09-07T18:36:59.547Z,22.13
2022-09-07T18:39:26.724Z,22.16
2022-09-07T18:41:56.196Z,22.11
2022-09-07T18:47:20.811Z,22.16
2022-09-07T18:49:49.055Z,21.97
2022-09-07T18:55:01.955Z,21.77
2022-09-07T18:57:28.488Z,21.76
2022-09-07T18:59:54.854Z,21.66
2022-09-07T19:02:21.295Z,21.55
2022-09-07T19:07:34.409Z,21.55
2022-09-07T19:10:04.371Z,21.50
2022-09-07T19:12:30.814Z,21.40
2022-09-07T19:14:57.155Z,21.29
2022-09-07T19:17:24.639Z,21.42
2022-09-07T19:19:52.679Z,21.41
2022-09-07T19:22:19.118Z,21.33
2022-09-07T19:24:45.520Z,21.28
2022-09-07T19:27:12.245Z,21.22
2022-09-07T19:29:38.593Z,21.18
2022-09-07T19:32:08.987Z,21.01
2022-09-07T19:34:41.110Z,21.18
2022-09-07T19:37:09.293Z,21.17
2022-09-07T19:39:35.807Z,21.14
2022-09-07T19:42:04.299Z,21.17
2022-09-07T19:44:31.112Z,21.15
2022-09-07T19:46:57.618Z,21.15
2022-09-07T19:49:24.087Z,21.17
2022-09-07T19:51:51.873Z,21.04
2022-09-07T19:54:18.808Z,21.18
2022-09-07T19:56:45.556Z,21.06
2022-09-07T19:59:12.464Z,21.20
2022-09-07T20:01:40.541Z,21.17
2022-09-07T20:04:12.919Z,21.12
2022-09-07T20:06:41.410Z,21.21
2022-09-07T20:09:08.247Z,21.14
2022-09-07T20:11:35.933Z,21.02
2022-09-07T20:14:02.866Z,21.15
2022-09-07T20:16:29.901Z,21.33
2022-09-07T20:18:56.611Z,21.32
2022-09-07T20:21:24.222Z,21.36
2022-09-07T20:23:51.133Z,21.38
2022-09-07T20:26:20.234Z,21.34
2022-09-07T20:29:05.680Z,21.39
2022-09-07T20:31:38.672Z,21.36
2022-09-07T20:34:05.411Z,21.38
2022-09-07T20:36:31.829Z,21.39
2022-09-07T20:38:58.288Z,21.38
2022-09-07T20:41:31.388Z,21.24
2022-09-07T20:44:00.024Z,21.35
2022-09-07T20:46:28.302Z,21.32
2022-09-07T20:48:55.107Z,21.22
2022-09-07T20:51:21.960Z,21.15
2022-09-07T20:53:49.290Z,21.16
2022-09-07T20:56:18.525Z,21.10
2022-09-07T20:58:46.564Z,20.80
2022-09-07T21:01:15.387Z,20.87
2022-09-07T21:04:01.079Z,20.75
2022-09-07T21:06:28.713Z,20.73
2022-09-07T21:08:57.150Z,20.63
2022-09-07T21:11:28.928Z,20.45
2022-09-07T21:14:01.001Z,20.42
2022-09-07T21:16:28.410Z,20.20
2022-09-07T21:18:57.576Z,20.18
2022-09-07T21:21:26.545Z,20.21
2022-09-07T21:24:01.643Z,20.00
2022-09-07T21:26:28.499Z,19.95
2022-09-07T21:29:00.119Z,20.01
2022-09-07T21:31:28.166Z,19.89
2022-09-07T21:33:56.175Z,19.72
2022-09-07T21:36:23.002Z,19.67
2022-09-07T21:38:50.166Z,19.75
2022-09-07T21:41:18.449Z,19.86
2022-09-07T21:43:44.811Z,19.86
2022-09-07T21:46:12.683Z,19.86
2022-09-07T21:48:39.995Z,19.87
2022-09-07T21:51:07.063Z,19.83
2022-09-07T21:53:34.512Z,19.87
2022-09-07T21:56:06.743Z,19.89
2022-09-07T21:58:33.592Z,19.88
2022-09-07T22:01:08.200Z,19.86
2022-09-07T22:03:34.820Z,19.76
2022-09-07T22:06:02.862Z,19.64
2022-09-07T22:08:29.267Z,19.52
2022-09-07T22:11:13.155Z,19.64
2022-09-07T22:13:39.682Z,19.60
2022-09-07T22:16:06.797Z,19.57
2022-09-07T22:18:34.587Z,19.50
2022-09-07T22:21:15.776Z,19.46
2022-09-07T22:23:45.388Z,19.35
2022-09-07T22:26:13.230Z,19.28
2022-09-07T22:28:40.184Z,19.09
2022-09-07T22:31:12.170Z,19.05
2022-09-07T22:33:39.492Z,19.05
2022-09-07T22:36:11.373Z,19.00
2022-09-07T22:38:38.223Z,18.84
2022-09-07T22:41:13.786Z,18.63
2022-09-07T22:43:40.955Z,18.80
2022-09-07T22:46:07.509Z,18.40
2022-09-07T22:48:34.357Z,18.60
2022-09-07T22:51:01.996Z,18.57
2022-09-07T22:53:30.850Z,18.66
2022-09-07T22:55:58.195Z,18.40
2022-09-07T22:58:25.100Z,18.55
2022-09-07T23:00:52.756Z,18.53
2022-09-07T23:03:19.320Z,18.35
2022-09-07T23:05:46.881Z,18.45
2022-09-07T23:08:13.357Z,18.40
2022-09-07T23:10:39.775Z,18.28
2022-09-07T23:13:06.221Z,18.23
2022-09-07T23:15:36.149Z,18.23
2022-09-07T23:18:02.513Z,18.13
2022-09-07T23:20:28.872Z,18.10
2022-09-07T23:22:55.220Z,18.10
2022-09-07T23:25:21.724Z,17.93
2022-09-07T23:27:48.743Z,18.07
2022-09-07T23:30:15.252Z,17.92
2022-09-07T23:32:41.775Z,17.98
2022-09-07T23:35:08.717Z,17.90
2022-09-07T23:37:35.192Z,17.87
2022-09-07T23:40:01.842Z,17.77
2022-09-07T23:42:28.236Z,17.73
2022-09-07T23:44:54.609Z,17.79
2022-09-07T23:47:20.945Z,17.72
2022-09-07T23:49:47.334Z,17.68
2022-09-07T23:52:13.756Z,17.66
2022-09-07T23:54:40.116Z,17.44
2022-09-07T23:57:06.496Z,17.65
2022-09-07T23:59:33.903Z,17.55
